sensor_id;sensor_type;location;lat;lon;timestamp;temperature;humidity
68251;DHT22;55066;51.560;4.642;2023-04-03T00:01:35;3.17;99.99
68251;DHT22;55066;51.560;4.642;2023-04-03T00:04:04;2.96;99.99
68251;DHT22;55066;51.560;4.642;2023-04-03T00:06:30;2.96;99.99
68251;DHT22;55066;51.560;4.642;2023-04-03T00:08:55;2.91;99.99
68251;DHT22;55066;51.560;4.642;2023-04-03T00:11:20;2.97;99.99
68251;DHT22;55066;51.560;4.642;2023-04-03T00:13:46;2.96;99.99
68251;DHT22;55066;51.560;4.642;2023-04-03T00:16:12;2.96;99.99
68251;DHT22;55066;51.560;4.642;2023-04-03T00:18:38;2.90;99.99
68251;DHT22;55066;51.560;4.642;2023-04-03T00:21:05;2.88;99.99
68251;DHT22;55066;51.560;4.642;2023-04-03T00:23:31;2.93;99.99
68251;DHT22;55066;51.560;4.642;2023-04-03T00:25:56;2.93;99.99
68251;DHT22;55066;51.560;4.642;2023-04-03T00:28:22;2.88;99.99
68251;DHT22;55066;51.560;4.642;2023-04-03T00:30:51;2.81;99.99
68251;DHT22;55066;51.560;4.642;2023-04-03T00:33:18;3.04;99.99
68251;DHT22;55066;51.560;4.642;2023-04-03T00:35:47;2.97;99.99
68251;DHT22;55066;51.560;4.642;2023-04-03T00:38:13;2.93;99.99
68251;DHT22;55066;51.560;4.642;2023-04-03T00:40:44;2.86;99.99
68251;DHT22;55066;51.560;4.642;2023-04-03T00:43:14;2.73;99.99
68251;DHT22;55066;51.560;4.642;2023-04-03T00:45:43;2.76;99.99
68251;DHT22;55066;51.560;4.642;2023-04-03T00:48:12;2.77;99.99
68251;DHT22;55066;51.560;4.642;2023-04-03T00:50:41;2.70;99.99
68251;DHT22;55066;51.560;4.642;2023-04-03T00:53:12;2.64;99.99
68251;DHT22;55066;51.560;4.642;2023-04-03T00:55:39;2.48;99.99
68251;DHT22;55066;51.560;4.642;2023-04-03T00:58:07;2.45;99.99
68251;DHT22;55066;51.560;4.642;2023-04-03T01:00:36;2.32;99.99
68251;DHT22;55066;51.560;4.642;2023-04-03T01:03:02;2.53;99.99
68251;DHT22;55066;51.560;4.642;2023-04-03T01:05:28;2.56;99.99
68251;DHT22;55066;51.560;4.642;2023-04-03T01:07:54;2.48;99.99
68251;DHT22;55066;51.560;4.642;2023-04-03T01:10:20;2.50;99.99
68251;DHT22;55066;51.560;4.642;2023-04-03T01:12:48;2.46;99.99
68251;DHT22;55066;51.560;4.642;2023-04-03T01:17:56;2.49;99.99
68251;DHT22;55066;51.560;4.642;2023-04-03T01:23:14;2.43;99.99
68251;DHT22;55066;51.560;4.642;2023-04-03T01:25:53;2.46;99.99
68251;DHT22;55066;51.560;4.642;2023-04-03T01:28:23;2.49;99.99
68251;DHT22;55066;51.560;4.642;2023-04-03T01:33:18;2.26;99.99
68251;DHT22;55066;51.560;4.642;2023-04-03T01:35:46;2.31;99.99
68251;DHT22;55066;51.560;4.642;2023-04-03T01:38:11;2.36;99.99
68251;DHT22;55066;51.560;4.642;2023-04-03T01:40:37;2.35;99.99
68251;DHT22;55066;51.560;4.642;2023-04-03T01:43:02;2.28;99.99
68251;DHT22;55066;51.560;4.642;2023-04-03T01:45:28;2.42;99.99
68251;DHT22;55066;51.560;4.642;2023-04-03T01:47:54;2.73;99.99
68251;DHT22;55066;51.560;4.642;2023-04-03T01:50:19;2.60;99.99
68251;DHT22;55066;51.560;4.642;2023-04-03T01:52:46;2.45;99.99
68251;DHT22;55066;51.560;4.642;2023-04-03T01:55:12;2.35;99.99
68251;DHT22;55066;51.560;4.642;2023-04-03T01:57:38;2.38;99.99
68251;DHT22;55066;51.560;4.642;2023-04-03T02:00:04;2.28;99.99
68251;DHT22;55066;51.560;4.642;2023-04-03T02:02:38;2.15;99.99
68251;DHT22;55066;51.560;4.642;2023-04-03T02:05:06;2.15;99.99
68251;DHT22;55066;51.560;4.642;2023-04-03T02:07:31;2.12;99.99
68251;DHT22;55066;51.560;4.642;2023-04-03T02:09:57;2.11;99.99
68251;DHT22;55066;51.560;4.642;2023-04-03T02:12:22;2.01;99.99
68251;DHT22;55066;51.560;4.642;2023-04-03T02:14:48;2.04;99.99
68251;DHT22;55066;51.560;4.642;2023-04-03T02:17:14;2.11;99.99
68251;DHT22;55066;51.560;4.642;2023-04-03T02:19:40;1.98;99.99
68251;DHT22;55066;51.560;4.642;2023-04-03T02:22:06;2.01;99.99
68251;DHT22;55066;51.560;4.642;2023-04-03T02:24:31;1.95;99.99
68251;DHT22;55066;51.560;4.642;2023-04-03T02:26:58;1.88;99.99
68251;DHT22;55066;51.560;4.642;2023-04-03T02:29:24;1.90;99.99
68251;DHT22;55066;51.560;4.642;2023-04-03T02:31:50;1.95;99.99
68251;DHT22;55066;51.560;4.642;2023-04-03T02:34:16;1.95;99.99
68251;DHT22;55066;51.560;4.642;2023-04-03T02:36:42;1.90;99.99
68251;DHT22;55066;51.560;4.642;2023-04-03T02:39:11;1.81;99.99
68251;DHT22;55066;51.560;4.642;2023-04-03T02:41:36;1.94;99.99
68251;DHT22;55066;51.560;4.642;2023-04-03T02:44:08;1.88;99.99
68251;DHT22;55066;51.560;4.642;2023-04-03T02:46:34;1.78;99.99
68251;DHT22;55066;51.560;4.642;2023-04-03T02:49:01;1.87;99.99
68251;DHT22;55066;51.560;4.642;2023-04-03T02:51:27;1.93;99.99
68251;DHT22;55066;51.560;4.642;2023-04-03T02:53:52;1.83;99.99
68251;DHT22;55066;51.560;4.642;2023-04-03T02:56:22;1.77;99.99
68251;DHT22;55066;51.560;4.642;2023-04-03T02:58:47;1.76;99.99
68251;DHT22;55066;51.560;4.642;2023-04-03T03:01:15;1.85;99.99
68251;DHT22;55066;51.560;4.642;2023-04-03T03:03:40;1.81;99.99
68251;DHT22;55066;51.560;4.642;2023-04-03T03:06:14;1.85;99.99
68251;DHT22;55066;51.560;4.642;2023-04-03T03:08:40;1.83;99.99
68251;DHT22;55066;51.560;4.642;2023-04-03T03:11:06;1.71;99.99
68251;DHT22;55066;51.560;4.642;2023-04-03T03:13:32;1.60;99.99
68251;DHT22;55066;51.560;4.642;2023-04-03T03:15:58;1.60;99.99
68251;DHT22;55066;51.560;4.642;2023-04-03T03:18:24;1.67;99.99
68251;DHT22;55066;51.560;4.642;2023-04-03T03:20:54;1.62;99.99
68251;DHT22;55066;51.560;4.642;2023-04-03T03:23:21;1.63;99.99
68251;DHT22;55066;51.560;4.642;2023-04-03T03:25:47;1.63;99.99
68251;DHT22;55066;51.560;4.642;2023-04-03T03:28:12;1.67;99.99
68251;DHT22;55066;51.560;4.642;2023-04-03T03:30:38;1.66;99.99
68251;DHT22;55066;51.560;4.642;2023-04-03T03:33:03;1.66;99.99
68251;DHT22;55066;51.560;4.642;2023-04-03T03:35:29;1.59;99.99
68251;DHT22;55066;51.560;4.642;2023-04-03T03:37:54;1.59;99.99
68251;DHT22;55066;51.560;4.642;2023-04-03T03:40:20;1.63;99.99
68251;DHT22;55066;51.560;4.642;2023-04-03T03:42:45;1.64;99.99
68251;DHT22;55066;51.560;4.642;2023-04-03T03:45:11;1.68;99.99
68251;DHT22;55066;51.560;4.642;2023-04-03T03:47:36;1.53;99.99
68251;DHT22;55066;51.560;4.642;2023-04-03T03:50:02;1.52;99.99
68251;DHT22;55066;51.560;4.642;2023-04-03T03:52:28;1.49;99.99
68251;DHT22;55066;51.560;4.642;2023-04-03T03:54:55;1.43;99.99
68251;DHT22;55066;51.560;4.642;2023-04-03T03:57:21;1.40;99.99
68251;DHT22;55066;51.560;4.642;2023-04-03T03:59:46;1.36;99.99
68251;DHT22;55066;51.560;4.642;2023-04-03T04:02:16;1.35;99.99
68251;DHT22;55066;51.560;4.642;2023-04-03T04:04:41;1.38;99.99
68251;DHT22;55066;51.560;4.642;2023-04-03T04:07:07;1.31;99.99
68251;DHT22;55066;51.560;4.642;2023-04-03T04:09:33;1.27;99.99
68251;DHT22;55066;51.560;4.642;2023-04-03T04:11:59;1.29;99.99
68251;DHT22;55066;51.560;4.642;2023-04-03T04:14:25;1.32;99.99
68251;DHT22;55066;51.560;4.642;2023-04-03T04:16:51;1.31;99.99
68251;DHT22;55066;51.560;4.642;2023-04-03T04:19:21;1.18;99.99
68251;DHT22;55066;51.560;4.642;2023-04-03T04:21:50;1.17;99.99
68251;DHT22;55066;51.560;4.642;2023-04-03T04:24:16;1.17;99.99
68251;DHT22;55066;51.560;4.642;2023-04-03T04:26:42;1.14;99.99
68251;DHT22;55066;51.560;4.642;2023-04-03T04:29:10;1.05;99.99
68251;DHT22;55066;51.560;4.642;2023-04-03T04:31:36;1.02;99.99
68251;DHT22;55066;51.560;4.642;2023-04-03T04:34:02;1.01;99.99
68251;DHT22;55066;51.560;4.642;2023-04-03T04:36:28;1.08;99.99
68251;DHT22;55066;51.560;4.642;2023-04-03T04:38:53;0.97;99.99
68251;DHT22;55066;51.560;4.642;2023-04-03T04:41:21;1.09;99.99
68251;DHT22;55066;51.560;4.642;2023-04-03T04:43:50;1.08;99.99
68251;DHT22;55066;51.560;4.642;2023-04-03T04:46:16;1.14;99.99
68251;DHT22;55066;51.560;4.642;2023-04-03T04:48:47;1.21;99.99
68251;DHT22;55066;51.560;4.642;2023-04-03T04:51:18;1.18;99.99
68251;DHT22;55066;51.560;4.642;2023-04-03T04:53:44;1.17;99.99
68251;DHT22;55066;51.560;4.642;2023-04-03T04:56:12;0.98;99.99
68251;DHT22;55066;51.560;4.642;2023-04-03T04:58:38;0.95;99.99
68251;DHT22;55066;51.560;4.642;2023-04-03T05:01:07;0.97;99.99
68251;DHT22;55066;51.560;4.642;2023-04-03T05:03:37;0.98;99.99
68251;DHT22;55066;51.560;4.642;2023-04-03T05:06:05;0.94;99.99
68251;DHT22;55066;51.560;4.642;2023-04-03T05:08:32;0.97;99.99
68251;DHT22;55066;51.560;4.642;2023-04-03T05:10:58;0.91;99.99
68251;DHT22;55066;51.560;4.642;2023-04-03T05:13:25;0.88;99.99
68251;DHT22;55066;51.560;4.642;2023-04-03T05:15:52;0.84;99.99
68251;DHT22;55066;51.560;4.642;2023-04-03T05:18:18;0.84;99.99
68251;DHT22;55066;51.560;4.642;2023-04-03T05:20:43;0.94;99.99
68251;DHT22;55066;51.560;4.642;2023-04-03T05:23:10;1.11;99.99
68251;DHT22;55066;51.560;4.642;2023-04-03T05:25:39;1.05;99.99
68251;DHT22;55066;51.560;4.642;2023-04-03T05:28:06;0.95;99.99
68251;DHT22;55066;51.560;4.642;2023-04-03T05:30:32;1.07;99.99
68251;DHT22;55066;51.560;4.642;2023-04-03T05:33:03;1.01;99.99
68251;DHT22;55066;51.560;4.642;2023-04-03T05:35:45;0.90;99.99
68251;DHT22;55066;51.560;4.642;2023-04-03T05:38:16;0.95;99.99
68251;DHT22;55066;51.560;4.642;2023-04-03T05:40:42;1.01;99.99
68251;DHT22;55066;51.560;4.642;2023-04-03T05:43:08;1.11;99.99
68251;DHT22;55066;51.560;4.642;2023-04-03T05:45:37;1.12;99.99
68251;DHT22;55066;51.560;4.642;2023-04-03T05:48:03;1.18;99.99
68251;DHT22;55066;51.560;4.642;2023-04-03T05:50:29;1.15;99.99
68251;DHT22;55066;51.560;4.642;2023-04-03T05:52:57;1.22;99.99
68251;DHT22;55066;51.560;4.642;2023-04-03T05:55:25;1.42;99.99
68251;DHT22;55066;51.560;4.642;2023-04-03T05:57:51;1.50;99.99
68251;DHT22;55066;51.560;4.642;2023-04-03T06:00:17;1.66;99.99
68251;DHT22;55066;51.560;4.642;2023-04-03T06:02:49;1.77;99.99
68251;DHT22;55066;51.560;4.642;2023-04-03T06:05:20;1.80;99.99
68251;DHT22;55066;51.560;4.642;2023-04-03T06:07:45;1.83;99.99
68251;DHT22;55066;51.560;4.642;2023-04-03T06:10:12;1.90;99.99
68251;DHT22;55066;51.560;4.642;2023-04-03T06:12:38;1.97;99.99
68251;DHT22;55066;51.560;4.642;2023-04-03T06:15:04;2.07;99.99
68251;DHT22;55066;51.560;4.642;2023-04-03T06:17:31;2.12;99.73
68251;DHT22;55066;51.560;4.642;2023-04-03T06:19:57;2.17;99.74
68251;DHT22;55066;51.560;4.642;2023-04-03T06:22:24;2.32;99.12
68251;DHT22;55066;51.560;4.642;2023-04-03T06:24:51;2.22;99.08
68251;DHT22;55066;51.560;4.642;2023-04-03T06:27:16;2.39;99.01
68251;DHT22;55066;51.560;4.642;2023-04-03T06:29:41;2.52;98.04
68251;DHT22;55066;51.560;4.642;2023-04-03T06:32:07;2.53;98.26
68251;DHT22;55066;51.560;4.642;2023-04-03T06:34:32;2.53;98.27
68251;DHT22;55066;51.560;4.642;2023-04-03T06:36:58;2.61;97.81
68251;DHT22;55066;51.560;4.642;2023-04-03T06:39:24;2.70;97.38
68251;DHT22;55066;51.560;4.642;2023-04-03T06:41:50;2.75;97.58
68251;DHT22;55066;51.560;4.642;2023-04-03T06:44:17;2.79;96.74
68251;DHT22;55066;51.560;4.642;2023-04-03T06:46:43;2.86;96.56
68251;DHT22;55066;51.560;4.642;2023-04-03T06:49:10;2.98;96.32
68251;DHT22;55066;51.560;4.642;2023-04-03T06:51:36;3.01;96.44
68251;DHT22;55066;51.560;4.642;2023-04-03T06:54:02;3.08;96.68
68251;DHT22;55066;51.560;4.642;2023-04-03T06:56:28;3.12;95.49
68251;DHT22;55066;51.560;4.642;2023-04-03T06:58:55;3.18;95.80
68251;DHT22;55066;51.560;4.642;2023-04-03T07:01:23;3.25;95.53
68251;DHT22;55066;51.560;4.642;2023-04-03T07:03:50;3.34;94.82
68251;DHT22;55066;51.560;4.642;2023-04-03T07:06:16;3.45;94.59
68251;DHT22;55066;51.560;4.642;2023-04-03T07:08:43;3.51;94.30
68251;DHT22;55066;51.560;4.642;2023-04-03T07:11:09;3.58;93.85
68251;DHT22;55066;51.560;4.642;2023-04-03T07:13:35;3.72;93.31
68251;DHT22;55066;51.560;4.642;2023-04-03T07:16:02;3.67;92.71
68251;DHT22;55066;51.560;4.642;2023-04-03T07:18:29;3.70;92.23
68251;DHT22;55066;51.560;4.642;2023-04-03T07:20:54;3.67;91.92
68251;DHT22;55066;51.560;4.642;2023-04-03T07:23:21;3.89;92.27
68251;DHT22;55066;51.560;4.642;2023-04-03T07:25:48;3.94;91.77
68251;DHT22;55066;51.560;4.642;2023-04-03T07:28:14;3.97;92.24
68251;DHT22;55066;51.560;4.642;2023-04-03T07:30:49;4.07;91.82
68251;DHT22;55066;51.560;4.642;2023-04-03T07:33:16;4.08;91.44
68251;DHT22;55066;51.560;4.642;2023-04-03T07:35:43;4.07;91.02
68251;DHT22;55066;51.560;4.642;2023-04-03T07:38:10;4.24;91.02
68251;DHT22;55066;51.560;4.642;2023-04-03T07:40:36;4.37;91.11
68251;DHT22;55066;51.560;4.642;2023-04-03T07:43:02;4.44;89.93
68251;DHT22;55066;51.560;4.642;2023-04-03T07:45:28;4.45;89.63
68251;DHT22;55066;51.560;4.642;2023-04-03T07:47:54;4.59;90.20
68251;DHT22;55066;51.560;4.642;2023-04-03T07:50:19;4.79;88.79
68251;DHT22;55066;51.560;4.642;2023-04-03T07:52:45;5.01;87.92
68251;DHT22;55066;51.560;4.642;2023-04-03T07:55:11;4.80;87.78
68251;DHT22;55066;51.560;4.642;2023-04-03T07:57:36;4.91;87.46
68251;DHT22;55066;51.560;4.642;2023-04-03T08:00:04;4.95;87.97
68251;DHT22;55066;51.560;4.642;2023-04-03T08:02:37;5.07;87.40
68251;DHT22;55066;51.560;4.642;2023-04-03T08:05:03;5.10;87.23
68251;DHT22;55066;51.560;4.642;2023-04-03T08:07:28;5.14;86.34
68251;DHT22;55066;51.560;4.642;2023-04-03T08:09:55;5.22;85.72
68251;DHT22;55066;51.560;4.642;2023-04-03T08:12:21;5.41;85.03
68251;DHT22;55066;51.560;4.642;2023-04-03T08:14:46;5.51;85.02
68251;DHT22;55066;51.560;4.642;2023-04-03T08:17:12;5.52;85.26
68251;DHT22;55066;51.560;4.642;2023-04-03T08:19:38;5.79;84.01
68251;DHT22;55066;51.560;4.642;2023-04-03T08:22:04;5.90;82.69
68251;DHT22;55066;51.560;4.642;2023-04-03T08:24:31;5.93;83.01
68251;DHT22;55066;51.560;4.642;2023-04-03T08:26:57;6.00;82.93
68251;DHT22;55066;51.560;4.642;2023-04-03T08:29:24;6.10;83.07
68251;DHT22;55066;51.560;4.642;2023-04-03T08:31:50;5.94;82.47
68251;DHT22;55066;51.560;4.642;2023-04-03T08:34:16;5.86;82.44
68251;DHT22;55066;51.560;4.642;2023-04-03T08:36:42;5.87;81.49
68251;DHT22;55066;51.560;4.642;2023-04-03T08:39:08;5.98;81.81
68251;DHT22;55066;51.560;4.642;2023-04-03T08:41:42;6.10;81.34
68251;DHT22;55066;51.560;4.642;2023-04-03T08:47:02;6.20;81.14
68251;DHT22;55066;51.560;4.642;2023-04-03T08:49:39;6.50;80.64
68251;DHT22;55066;51.560;4.642;2023-04-03T08:52:11;6.62;78.73
68251;DHT22;55066;51.560;4.642;2023-04-03T08:55:00;6.55;77.82
68251;DHT22;55066;51.560;4.642;2023-04-03T08:57:30;6.69;77.85
68251;DHT22;55066;51.560;4.642;2023-04-03T08:59:58;6.82;77.46
68251;DHT22;55066;51.560;4.642;2023-04-03T09:02:33;6.86;76.74
68251;DHT22;55066;51.560;4.642;2023-04-03T09:04:59;6.68;76.44
68251;DHT22;55066;51.560;4.642;2023-04-03T09:08:05;6.87;76.40
68251;DHT22;55066;51.560;4.642;2023-04-03T09:10:34;6.90;76.09
68251;DHT22;55066;51.560;4.642;2023-04-03T09:13:08;7.07;74.83
68251;DHT22;55066;51.560;4.642;2023-04-03T09:15:36;7.22;74.70
68251;DHT22;55066;51.560;4.642;2023-04-03T09:18:20;7.45;74.88
68251;DHT22;55066;51.560;4.642;2023-04-03T09:26:39;7.10;70.92
68251;DHT22;55066;51.560;4.642;2023-04-03T09:29:07;7.45;70.49
68251;DHT22;55066;51.560;4.642;2023-04-03T09:31:38;7.73;70.73
68251;DHT22;55066;51.560;4.642;2023-04-03T09:34:15;7.54;70.33
68251;DHT22;55066;51.560;4.642;2023-04-03T09:36:54;7.63;70.67
68251;DHT22;55066;51.560;4.642;2023-04-03T09:39:26;7.91;70.42
68251;DHT22;55066;51.560;4.642;2023-04-03T09:42:01;7.90;70.71
68251;DHT22;55066;51.560;4.642;2023-04-03T09:44:35;7.87;69.42
68251;DHT22;55066;51.560;4.642;2023-04-03T09:47:21;8.11;65.69
68251;DHT22;55066;51.560;4.642;2023-04-03T09:49:48;8.20;67.88
68251;DHT22;55066;51.560;4.642;2023-04-03T09:52:24;8.08;65.99
68251;DHT22;55066;51.560;4.642;2023-04-03T09:54:50;8.23;63.93
68251;DHT22;55066;51.560;4.642;2023-04-03T09:57:15;8.10;64.60
68251;DHT22;55066;51.560;4.642;2023-04-03T09:59:56;8.40;65.98
68251;DHT22;55066;51.560;4.642;2023-04-03T10:02:32;8.34;69.69
68251;DHT22;55066;51.560;4.642;2023-04-03T10:04:59;8.44;65.92
68251;DHT22;55066;51.560;4.642;2023-04-03T10:07:36;8.45;63.23
68251;DHT22;55066;51.560;4.642;2023-04-03T10:12:39;8.49;59.96
68251;DHT22;55066;51.560;4.642;2023-04-03T10:15:12;8.49;60.74
68251;DHT22;55066;51.560;4.642;2023-04-03T10:17:50;8.66;61.25
68251;DHT22;55066;51.560;4.642;2023-04-03T10:20:44;8.97;59.92
68251;DHT22;55066;51.560;4.642;2023-04-03T10:23:25;9.00;59.59
68251;DHT22;55066;51.560;4.642;2023-04-03T10:26:09;8.69;58.94
68251;DHT22;55066;51.560;4.642;2023-04-03T10:31:33;8.99;61.41
68251;DHT22;55066;51.560;4.642;2023-04-03T10:34:10;9.17;63.79
68251;DHT22;55066;51.560;4.642;2023-04-03T10:36:59;9.28;57.57
68251;DHT22;55066;51.560;4.642;2023-04-03T10:53:39;9.56;58.34
68251;DHT22;55066;51.560;4.642;2023-04-03T10:56:32;9.35;55.47
68251;DHT22;55066;51.560;4.642;2023-04-03T10:59:21;9.20;55.77
68251;DHT22;55066;51.560;4.642;2023-04-03T11:01:51;8.97;55.31
68251;DHT22;55066;51.560;4.642;2023-04-03T11:04:20;9.30;62.85
68251;DHT22;55066;51.560;4.642;2023-04-03T11:07:02;9.39;59.57
68251;DHT22;55066;51.560;4.642;2023-04-03T11:09:34;9.85;59.57
68251;DHT22;55066;51.560;4.642;2023-04-03T11:12:13;9.78;57.46
68251;DHT22;55066;51.560;4.642;2023-04-03T11:14:41;9.93;55.90
68251;DHT22;55066;51.560;4.642;2023-04-03T11:20:14;9.92;57.28
68251;DHT22;55066;51.560;4.642;2023-04-03T11:22:43;9.83;53.88
68251;DHT22;55066;51.560;4.642;2023-04-03T11:27:58;9.61;52.33
68251;DHT22;55066;51.560;4.642;2023-04-03T11:30:30;9.72;55.30
68251;DHT22;55066;51.560;4.642;2023-04-03T11:36:05;10.00;59.59
68251;DHT22;55066;51.560;4.642;2023-04-03T11:38:34;10.03;52.10
68251;DHT22;55066;51.560;4.642;2023-04-03T11:41:02;10.13;55.32
68251;DHT22;55066;51.560;4.642;2023-04-03T11:43:31;10.10;53.47
68251;DHT22;55066;51.560;4.642;2023-04-03T11:46:02;9.96;50.59
68251;DHT22;55066;51.560;4.642;2023-04-03T11:51:01;10.54;56.28
68251;DHT22;55066;51.560;4.642;2023-04-03T11:53:38;10.24;56.51
68251;DHT22;55066;51.560;4.642;2023-04-03T12:01:57;10.25;55.43
68251;DHT22;55066;51.560;4.642;2023-04-03T12:04:27;10.16;55.03
68251;DHT22;55066;51.560;4.642;2023-04-03T12:07:22;10.27;54.20
68251;DHT22;55066;51.560;4.642;2023-04-03T12:12:35;10.78;53.14
68251;DHT22;55066;51.560;4.642;2023-04-03T12:15:38;10.48;51.93
68251;DHT22;55066;51.560;4.642;2023-04-03T12:18:40;10.93;61.00
68251;DHT22;55066;51.560;4.642;2023-04-03T12:21:06;10.51;52.28
68251;DHT22;55066;51.560;4.642;2023-04-03T12:23:33;10.58;51.14
68251;DHT22;55066;51.560;4.642;2023-04-03T12:26:03;10.57;51.89
68251;DHT22;55066;51.560;4.642;2023-04-03T12:28:36;10.49;48.68
68251;DHT22;55066;51.560;4.642;2023-04-03T12:31:04;10.65;52.00
68251;DHT22;55066;51.560;4.642;2023-04-03T12:42:03;10.51;51.92
68251;DHT22;55066;51.560;4.642;2023-04-03T12:45:22;10.66;53.39
68251;DHT22;55066;51.560;4.642;2023-04-03T12:47:49;10.51;51.61
68251;DHT22;55066;51.560;4.642;2023-04-03T12:50:20;10.68;51.83
68251;DHT22;55066;51.560;4.642;2023-04-03T12:53:04;10.24;47.14
68251;DHT22;55066;51.560;4.642;2023-04-03T12:55:30;10.83;56.77
68251;DHT22;55066;51.560;4.642;2023-04-03T12:57:56;10.72;51.22
68251;DHT22;55066;51.560;4.642;2023-04-03T13:00:34;10.86;54.85
68251;DHT22;55066;51.560;4.642;2023-04-03T13:03:02;11.40;55.16
68251;DHT22;55066;51.560;4.642;2023-04-03T13:05:28;11.04;53.15
68251;DHT22;55066;51.560;4.642;2023-04-03T13:08:00;11.17;59.69
68251;DHT22;55066;51.560;4.642;2023-04-03T13:10:28;11.67;68.88
68251;DHT22;55066;51.560;4.642;2023-04-03T13:13:06;10.96;49.10
68251;DHT22;55066;51.560;4.642;2023-04-03T13:15:44;10.69;51.68
68251;DHT22;55066;51.560;4.642;2023-04-03T13:18:32;10.52;50.52
68251;DHT22;55066;51.560;4.642;2023-04-03T13:21:05;11.20;58.39
68251;DHT22;55066;51.560;4.642;2023-04-03T13:23:32;11.22;52.73
68251;DHT22;55066;51.560;4.642;2023-04-03T13:25:59;11.88;62.17
68251;DHT22;55066;51.560;4.642;2023-04-03T13:28:29;11.23;51.52
68251;DHT22;55066;51.560;4.642;2023-04-03T13:31:18;11.42;51.91
68251;DHT22;55066;51.560;4.642;2023-04-03T13:34:03;11.16;51.67
68251;DHT22;55066;51.560;4.642;2023-04-03T13:36:33;10.85;50.93
68251;DHT22;55066;51.560;4.642;2023-04-03T13:39:05;11.61;72.43
68251;DHT22;55066;51.560;4.642;2023-04-03T13:41:35;11.40;52.50
68251;DHT22;55066;51.560;4.642;2023-04-03T13:46:51;10.95;48.36
68251;DHT22;55066;51.560;4.642;2023-04-03T13:49:39;11.16;52.61
68251;DHT22;55066;51.560;4.642;2023-04-03T13:54:46;11.27;54.12
68251;DHT22;55066;51.560;4.642;2023-04-03T13:57:14;11.67;52.37
68251;DHT22;55066;51.560;4.642;2023-04-03T13:59:41;11.51;54.87
68251;DHT22;55066;51.560;4.642;2023-04-03T14:07:02;11.75;55.53
68251;DHT22;55066;51.560;4.642;2023-04-03T14:09:28;12.50;52.55
68251;DHT22;55066;51.560;4.642;2023-04-03T14:12:06;13.70;54.36
68251;DHT22;55066;51.560;4.642;2023-04-03T14:14:34;13.68;54.47
68251;DHT22;55066;51.560;4.642;2023-04-03T14:17:03;13.43;47.53
68251;DHT22;55066;51.560;4.642;2023-04-03T14:19:31;12.98;51.32
68251;DHT22;55066;51.560;4.642;2023-04-03T14:21:58;14.05;53.01
68251;DHT22;55066;51.560;4.642;2023-04-03T14:24:24;14.25;64.42
68251;DHT22;55066;51.560;4.642;2023-04-03T14:26:51;15.60;58.13
68251;DHT22;55066;51.560;4.642;2023-04-03T14:29:18;13.74;48.88
68251;DHT22;55066;51.560;4.642;2023-04-03T14:31:46;11.75;51.54
68251;DHT22;55066;51.560;4.642;2023-04-03T14:34:13;12.61;51.08
68251;DHT22;55066;51.560;4.642;2023-04-03T14:36:39;12.55;53.35
68251;DHT22;55066;51.560;4.642;2023-04-03T14:39:08;12.93;54.90
68251;DHT22;55066;51.560;4.642;2023-04-03T14:41:35;12.45;52.26
68251;DHT22;55066;51.560;4.642;2023-04-03T14:44:01;12.64;60.46
68251;DHT22;55066;51.560;4.642;2023-04-03T14:46:30;12.57;57.94
68251;DHT22;55066;51.560;4.642;2023-04-03T14:48:56;12.06;53.40
68251;DHT22;55066;51.560;4.642;2023-04-03T14:51:22;11.88;52.49
68251;DHT22;55066;51.560;4.642;2023-04-03T14:53:48;12.16;56.35
68251;DHT22;55066;51.560;4.642;2023-04-03T14:56:23;12.15;52.21
68251;DHT22;55066;51.560;4.642;2023-04-03T14:58:49;12.00;52.00
68251;DHT22;55066;51.560;4.642;2023-04-03T15:01:17;11.90;52.99
68251;DHT22;55066;51.560;4.642;2023-04-03T15:03:44;13.06;68.94
68251;DHT22;55066;51.560;4.642;2023-04-03T15:06:13;11.90;51.88
68251;DHT22;55066;51.560;4.642;2023-04-03T15:08:39;11.71;55.64
68251;DHT22;55066;51.560;4.642;2023-04-03T15:11:06;11.54;53.41
68251;DHT22;55066;51.560;4.642;2023-04-03T15:13:32;11.95;56.93
68251;DHT22;55066;51.560;4.642;2023-04-03T15:15:58;12.34;56.44
68251;DHT22;55066;51.560;4.642;2023-04-03T15:18:26;12.75;54.82
68251;DHT22;55066;51.560;4.642;2023-04-03T15:20:54;12.57;52.82
68251;DHT22;55066;51.560;4.642;2023-04-03T15:23:20;12.22;55.31
68251;DHT22;55066;51.560;4.642;2023-04-03T15:25:51;12.10;53.99
68251;DHT22;55066;51.560;4.642;2023-04-03T15:28:22;11.86;55.86
68251;DHT22;55066;51.560;4.642;2023-04-03T15:30:48;11.92;56.77
68251;DHT22;55066;51.560;4.642;2023-04-03T15:33:14;11.68;51.60
68251;DHT22;55066;51.560;4.642;2023-04-03T15:35:41;11.98;56.31
68251;DHT22;55066;51.560;4.642;2023-04-03T15:38:07;11.69;56.36
68251;DHT22;55066;51.560;4.642;2023-04-03T15:40:33;11.52;56.55
68251;DHT22;55066;51.560;4.642;2023-04-03T15:42:58;12.24;58.71
68251;DHT22;55066;51.560;4.642;2023-04-03T15:45:24;11.67;54.83
68251;DHT22;55066;51.560;4.642;2023-04-03T15:47:49;11.82;56.71
68251;DHT22;55066;51.560;4.642;2023-04-03T15:50:15;11.64;60.40
68251;DHT22;55066;51.560;4.642;2023-04-03T15:52:41;11.60;56.63
68251;DHT22;55066;51.560;4.642;2023-04-03T15:55:06;11.16;56.25
68251;DHT22;55066;51.560;4.642;2023-04-03T15:57:32;11.90;63.39
68251;DHT22;55066;51.560;4.642;2023-04-03T15:59:57;11.57;56.54
68251;DHT22;55066;51.560;4.642;2023-04-03T16:02:22;11.38;56.34
68251;DHT22;55066;51.560;4.642;2023-04-03T16:04:48;11.60;61.45
68251;DHT22;55066;51.560;4.642;2023-04-03T16:07:14;11.67;61.15
68251;DHT22;55066;51.560;4.642;2023-04-03T16:09:40;11.31;59.74
68251;DHT22;55066;51.560;4.642;2023-04-03T16:12:05;11.14;58.14
68251;DHT22;55066;51.560;4.642;2023-04-03T16:14:30;11.06;56.12
68251;DHT22;55066;51.560;4.642;2023-04-03T16:16:57;11.64;62.76
68251;DHT22;55066;51.560;4.642;2023-04-03T16:19:23;12.16;53.76
68251;DHT22;55066;51.560;4.642;2023-04-03T16:21:48;12.36;56.16
68251;DHT22;55066;51.560;4.642;2023-04-03T16:24:14;12.12;56.48
68251;DHT22;55066;51.560;4.642;2023-04-03T16:26:39;12.40;58.03
68251;DHT22;55066;51.560;4.642;2023-04-03T16:29:05;11.95;54.97
68251;DHT22;55066;51.560;4.642;2023-04-03T16:31:32;11.51;55.68
68251;DHT22;55066;51.560;4.642;2023-04-03T16:33:57;12.55;56.94
68251;DHT22;55066;51.560;4.642;2023-04-03T16:36:24;12.27;53.14
68251;DHT22;55066;51.560;4.642;2023-04-03T16:38:51;13.40;58.93
68251;DHT22;55066;51.560;4.642;2023-04-03T16:41:16;13.05;52.61
68251;DHT22;55066;51.560;4.642;2023-04-03T16:43:42;13.08;55.15
68251;DHT22;55066;51.560;4.642;2023-04-03T16:46:07;13.64;59.90
68251;DHT22;55066;51.560;4.642;2023-04-03T16:48:32;13.39;58.53
68251;DHT22;55066;51.560;4.642;2023-04-03T16:50:58;12.67;52.05
68251;DHT22;55066;51.560;4.642;2023-04-03T16:53:24;12.27;52.80
68251;DHT22;55066;51.560;4.642;2023-04-03T16:55:50;12.71;57.05
68251;DHT22;55066;51.560;4.642;2023-04-03T16:58:16;10.96;55.91
68251;DHT22;55066;51.560;4.642;2023-04-03T17:00:42;10.07;65.39
68251;DHT22;55066;51.560;4.642;2023-04-03T17:03:07;10.33;64.74
68251;DHT22;55066;51.560;4.642;2023-04-03T17:05:33;9.87;60.68
68251;DHT22;55066;51.560;4.642;2023-04-03T17:08:00;9.56;60.01